32°C Temp
18°C Dewpoint
% Humidity
Temperature
37 KM/H
23 MPH
20 KTS
70°
East North
East

Wind Speed
Despejado
Pressure 1016.92 (hPa) - 30.03 (in)
Visibility 6.2 (mi) - 10.0 (km)

Current Conditions
LEAL
Location 70(km)
Metar :LEAL 271200Z 07020G31KT 040V110 CAVOK 32/18 Q1017 NOSIG
Thu 27th June 14:00 pm

Airport
  Metar Aviation API Data Provided by https://www.checkwx.com/ PHP scripts by weather34.com ©2019